createdAt,value
2023-02-19T00:04:14.268Z,962.57
2023-02-19T00:19:16.562Z,962.58
2023-02-19T00:34:18.815Z,962.74
2023-02-19T00:49:21.092Z,962.8
2023-02-19T01:04:23.416Z,963.01
2023-02-19T01:19:25.753Z,963.17
2023-02-19T01:34:28.002Z,963.37
2023-02-19T01:49:30.453Z,963.62
2023-02-19T02:04:32.734Z,963.86
2023-02-19T02:19:35.061Z,963.76
2023-02-19T02:34:37.275Z,964.04
2023-02-19T02:49:39.495Z,964.26
2023-02-19T03:04:41.793Z,964.28
2023-02-19T03:19:44.076Z,964.47
2023-02-19T03:34:46.431Z,964.55
2023-02-19T03:49:49.215Z,964.69
2023-02-19T04:04:51.681Z,964.77
2023-02-19T04:19:53.888Z,964.85
2023-02-19T04:34:56.743Z,964.86
2023-02-19T04:49:59.114Z,964.83
2023-02-19T05:05:01.403Z,964.75
2023-02-19T05:20:03.883Z,964.75
2023-02-19T05:35:06.160Z,964.69
2023-02-19T05:50:08.436Z,964.72
2023-02-19T06:05:10.599Z,964.74
2023-02-19T06:20:12.832Z,964.59
2023-02-19T06:35:15.060Z,964.49
2023-02-19T06:50:17.300Z,964.57
2023-02-19T07:05:19.482Z,964.66
2023-02-19T07:20:21.869Z,964.6
2023-02-19T07:35:24.092Z,964.34
2023-02-19T07:50:26.478Z,964.27
2023-02-19T08:05:28.704Z,964.39
2023-02-19T08:20:30.889Z,964.27
2023-02-19T08:35:33.083Z,963.99
2023-02-19T08:50:35.479Z,964.26
2023-02-19T09:05:37.717Z,964.49
2023-02-19T09:20:39.946Z,964.08
2023-02-19T09:35:42.184Z,964.03
2023-02-19T09:50:44.435Z,964.03
2023-02-19T10:05:46.735Z,963.99
2023-02-19T10:20:48.951Z,963.77
2023-02-19T10:35:51.370Z,963.47
2023-02-19T10:50:53.568Z,963.37
2023-02-19T11:05:55.988Z,963.21
2023-02-19T11:20:58.231Z,963.46
2023-02-19T11:36:00.418Z,963.24
2023-02-19T11:51:02.625Z,962.97
2023-02-19T12:06:04.846Z,963.03
2023-02-19T12:21:07.122Z,962.66
2023-02-19T12:36:09.677Z,962.47
2023-02-19T12:51:12.125Z,962.28
2023-02-19T13:06:15.009Z,962.24
2023-02-19T13:21:17.543Z,962.44
2023-02-19T13:36:19.713Z,962.11
2023-02-19T13:51:21.966Z,961.94
2023-02-19T14:06:24.185Z,961.95
2023-02-19T14:21:26.411Z,961.81
2023-02-19T14:36:28.677Z,961.91
2023-02-19T14:51:30.909Z,961.73
2023-02-19T15:06:33.189Z,961.91
2023-02-19T15:21:35.517Z,961.78
2023-02-19T15:36:37.796Z,961.63
2023-02-19T15:51:40.165Z,961.94
2023-02-19T16:06:42.472Z,961.88
2023-02-19T16:21:44.697Z,961.62
2023-02-19T16:36:47.215Z,961.65
2023-02-19T16:51:49.618Z,961.42
2023-02-19T17:06:51.838Z,961.41
2023-02-19T17:21:54.060Z,961.39
2023-02-19T17:36:56.460Z,961.21
2023-02-19T17:51:58.734Z,960.86
2023-02-19T18:07:01.014Z,960.76
2023-02-19T18:22:04.650Z,960.92
2023-02-19T18:37:08.106Z,960.77
2023-02-19T18:52:10.375Z,960.74
2023-02-19T19:07:12.617Z,960.71
2023-02-19T19:22:14.798Z,960.69
2023-02-19T19:37:17.006Z,960.53
2023-02-19T19:52:19.233Z,960.17
2023-02-19T20:07:21.538Z,959.98
2023-02-19T20:22:23.787Z,959.68
2023-02-19T20:37:26.873Z,959.66
2023-02-19T20:52:29.243Z,959.38
2023-02-19T21:07:31.488Z,959.05
2023-02-19T21:22:33.720Z,958.88
2023-02-19T21:37:37.087Z,958.77
2023-02-19T21:52:39.338Z,958.66
2023-02-19T22:07:41.934Z,958.69
2023-02-19T22:22:44.386Z,958.44
2023-02-19T22:37:46.907Z,958.2
2023-02-19T22:52:49.118Z,958.35
2023-02-19T23:07:51.372Z,958.32
2023-02-19T23:22:53.655Z,958.32
2023-02-19T23:37:56.012Z,958.29
2023-02-19T23:52:58.350Z,958.5
